Time;durP1;ratioP1;P1;durP2;ratioP2;P2;SDS_P1;SDS_P2;PMS_P1;PMS_P2;Temp;Humidity;BMP_temperature;BMP_pressure;BME280_temperature;BME280_humidity;BME280_pressure;Samples;Min_cycle;Max_cycle;Signal;HPM_P1;HPM_P2
2023/08/13 00:01:01;;;;;;;22.80;20.40;;;;;;;16.57;100.00;99149.20;109630;1251;60167;-73
2023/08/13 00:03:47;;;;;;;22.40;20.10;;;;;;;16.55;100.00;99148.89;109600;1251;65229;-73
2023/08/13 00:06:13;;;;;;;22.60;20.30;;;;;;;16.54;100.00;99155.66;109550;1251;59050;-73
2023/08/13 00:08:40;;;;;;;22.70;20.40;;;;;;;16.50;100.00;99155.95;109580;1251;58940;-72
2023/08/13 00:11:11;;;;;;;21.40;19.20;;;;;;;16.48;100.00;99153.98;109604;1251;66019;-72
2023/08/13 00:13:39;;;;;;;22.00;19.70;;;;;;;16.47;100.00;99153.77;109634;1250;59199;-72
2023/08/13 00:16:06;;;;;;;22.70;20.40;;;;;;;16.46;100.00;99156.48;109294;1251;63677;-72
2023/08/13 00:18:34;;;;;;;21.80;19.70;;;;;;;16.43;100.00;99155.73;109688;1251;58940;-73
2023/08/13 00:21:00;;;;;;;21.10;19.10;;;;;;;16.38;100.00;99154.69;109608;1251;59076;-73
2023/08/13 00:23:27;;;;;;;22.10;19.90;;;;;;;16.35;100.00;99158.33;109351;1251;64867;-73
2023/08/13 00:25:54;;;;;;;22.30;20.30;;;;;;;16.33;100.00;99160.70;109652;1251;60077;-72
2023/08/13 00:28:20;;;;;;;22.40;20.00;;;;;;;16.31;100.00;99165.70;109416;1251;65286;-73
2023/08/13 00:30:47;;;;;;;22.10;19.90;;;;;;;16.30;100.00;99164.77;109591;1250;58966;-73
2023/08/13 00:33:14;;;;;;;21.10;19.10;;;;;;;16.28;100.00;99170.13;109611;1251;59144;-73
2023/08/13 00:35:40;;;;;;;21.80;19.60;;;;;;;16.23;100.00;99176.94;109635;1251;66057;-73
2023/08/13 00:38:07;;;;;;;23.30;20.80;;;;;;;16.20;100.00;99176.48;109628;1251;59298;-73
2023/08/13 00:40:34;;;;;;;23.70;21.20;;;;;;;16.18;100.00;99177.77;109563;1251;63320;-73
2023/08/13 00:43:02;;;;;;;22.60;20.40;;;;;;;16.19;100.00;99181.25;109365;1251;299413;-72
2023/08/13 00:45:33;;;;;;;21.00;19.10;;;;;;;16.18;100.00;99180.98;109653;1251;59113;-73
2023/08/13 00:48:00;;;;;;;19.80;17.80;;;;;;;16.16;100.00;99183.66;109331;1253;64944;-72
2023/08/13 00:50:28;;;;;;;19.60;17.70;;;;;;;16.14;100.00;99181.91;109553;1252;58981;-73
2023/08/13 00:52:54;;;;;;;21.10;18.40;;;;;;;16.12;100.00;99183.85;109471;1253;71060;-73
2023/08/13 00:55:21;;;;;;;20.30;18.30;;;;;;;16.11;100.00;99180.23;109527;1253;58959;-73
2023/08/13 00:57:48;;;;;;;20.60;18.40;;;;;;;16.09;100.00;99178.61;109500;1253;58849;-72
2023/08/13 01:00:16;;;;;;;19.30;17.40;;;;;;;16.03;100.00;99177.66;109512;1253;67206;-73
2023/08/13 01:02:43;;;;;;;20.00;18.10;;;;;;;15.98;100.00;99179.35;109550;1252;60279;-73
2023/08/13 01:05:09;;;;;;;21.40;19.40;;;;;;;15.96;100.00;99179.16;109313;1254;65181;-72
2023/08/13 01:08:00;;;;;;;20.90;18.80;;;;;;;15.89;100.00;99178.86;109493;1252;58996;-72
2023/08/13 01:10:29;;;;;;;;;;;;;;;15.77;100.00;99190.24;109525;1254;59056;-72
2023/08/13 01:12:59;;;;;;;19.90;17.90;;;;;;;15.72;100.00;99191.78;109515;1253;67213;-73
2023/08/13 01:15:36;;;;;;;20.40;18.20;;;;;;;15.70;100.00;99190.67;109468;1253;69846;-73
2023/08/13 01:18:02;;;;;;;19.30;17.50;;;;;;;15.71;100.00;99190.98;109498;1254;62848;-73
2023/08/13 01:20:35;;;;;;;20.10;18.20;;;;;;;15.72;100.00;99192.34;109276;1251;58964;-73
2023/08/13 01:23:02;;;;;;;20.40;18.40;;;;;;;15.75;100.00;99193.34;109505;1252;58983;-73
2023/08/13 01:25:30;;;;;;;21.80;19.50;;;;;;;15.79;100.00;99194.78;109541;1253;65742;-73
2023/08/13 01:28:35;;;;;;;22.60;20.40;;;;;;;15.81;100.00;99194.09;109528;1251;60208;-73
2023/08/13 01:31:04;;;;;;;19.90;17.90;;;;;;;15.84;100.00;99198.52;109532;1252;63273;-73
2023/08/13 01:33:33;;;;;;;20.80;18.90;;;;;;;15.86;100.00;99189.58;109460;1254;59019;-72
2023/08/13 01:36:05;;;;;;;25.30;21.40;;;;;;;15.86;100.00;99194.38;109546;1252;58950;-73
2023/08/13 01:38:33;;;;;;;26.00;23.50;;;;;;;15.87;100.00;99190.48;109217;1252;64916;-73
2023/08/13 01:41:03;;;;;;;20.80;18.80;;;;;;;15.89;100.00;99196.83;109380;1254;61016;-73
2023/08/13 01:43:30;;;;;;;20.00;18.20;;;;;;;15.89;100.00;99198.04;109484;1252;63760;-73
2023/08/13 01:46:01;;;;;;;22.20;20.20;;;;;;;15.89;100.00;99192.49;109538;1252;58998;-73
2023/08/13 01:48:28;;;;;;;22.40;20.20;;;;;;;15.90;100.00;99189.53;109509;1252;59017;-73
2023/08/13 01:50:55;;;;;;;24.80;22.50;;;;;;;15.92;100.00;99186.70;109481;1252;66152;-73
2023/08/13 01:53:21;;;;;;;26.70;24.20;;;;;;;15.94;100.00;99185.42;109543;1252;59865;-72
2023/08/13 01:55:48;;;;;;;23.80;21.50;;;;;;;15.95;100.00;99182.61;109332;1254;63735;-72
2023/08/13 01:58:14;;;;;;;22.40;20.50;;;;;;;15.96;100.00;99180.21;109510;1254;59227;-73
2023/08/13 02:00:41;;;;;;;22.20;19.90;;;;;;;15.95;100.00;99182.11;109331;1254;59102;-72
2023/08/13 02:03:07;;;;;;;21.70;19.70;;;;;;;15.93;100.00;99181.71;109520;1253;66033;-73
2023/08/13 02:05:34;;;;;;;22.00;20.10;;;;;;;15.93;100.00;99181.42;109490;1252;60193;-72
2023/08/13 02:08:01;;;;;;;22.40;20.30;;;;;;;15.91;100.00;99179.38;109450;1252;63799;-72
2023/08/13 02:10:27;;;;;;;24.60;22.00;;;;;;;15.87;100.00;99176.34;109545;1253;59033;-73
2023/08/13 02:12:54;;;;;;;25.40;23.10;;;;;;;15.86;100.00;99184.00;109538;1253;58965;-73
2023/08/13 02:15:20;;;;;;;26.90;24.40;;;;;;;15.84;100.00;99187.16;109499;1252;65873;-73
2023/08/13 02:17:47;;;;;;;25.40;23.00;;;;;;;15.83;100.00;99185.16;109563;1252;59042;-73
2023/08/13 02:20:13;;;;;;;25.30;23.20;;;;;;;15.81;100.00;99184.77;109472;1254;59084;-72
2023/08/13 02:22:40;;;;;;;23.30;21.10;;;;;;;15.78;100.00;99185.50;109513;1252;59018;-73
2023/08/13 02:25:07;;;;;;;24.30;21.80;;;;;;;15.74;100.00;99184.45;109519;1253;59043;-72
2023/08/13 02:27:33;;;;;;;24.70;22.30;;;;;;;15.70;100.00;99186.55;109523;1253;64478;-73
2023/08/13 02:30:00;;;;;;;24.30;22.10;;;;;;;15.67;100.00;99192.52;109468;1252;59172;-73
2023/08/13 02:32:27;;;;;;;24.60;22.10;;;;;;;15.64;100.00;99190.64;109501;1252;64762;-73
2023/08/13 02:34:53;;;;;;;23.60;21.50;;;;;;;15.59;100.00;99193.53;109296;1253;58981;-73
2023/08/13 02:37:20;;;;;;;23.60;21.20;;;;;;;15.56;100.00;99197.44;109541;1252;58992;-72
2023/08/13 02:39:46;;;;;;;23.20;21.00;;;;;;;15.52;100.00;99195.39;109489;1256;67140;-72
2023/08/13 02:42:13;;;;;;;23.30;21.30;;;;;;;15.49;100.00;99190.63;109519;1253;60138;-72
2023/08/13 02:44:39;;;;;;;24.20;21.90;;;;;;;15.46;100.00;99198.40;109505;1254;65212;-73
2023/08/13 02:47:06;;;;;;;23.40;21.10;;;;;;;15.43;100.00;99204.94;109223;1253;59120;-73
2023/08/13 02:49:33;;;;;;;22.80;20.70;;;;;;;15.38;100.00;99211.45;109496;1253;59087;-72
2023/08/13 02:51:59;;;;;;;22.70;20.70;;;;;;;15.34;100.00;99208.70;109498;1254;65711;-73
2023/08/13 02:54:26;;;;;;;22.40;20.30;;;;;;;15.30;100.00;99202.98;109584;1252;61038;-73
2023/08/13 02:56:52;;;;;;;21.80;19.90;;;;;;;15.26;100.00;99197.56;109310;1252;64229;-73
2023/08/13 02:59:19;;;;;;;21.90;19.90;;;;;;;15.22;100.00;99189.30;109586;1251;59278;-73
2023/08/13 03:01:45;;;;;;;22.80;20.50;;;;;;;15.18;100.00;99186.23;109533;1253;58971;-73
2023/08/13 03:04:12;;;;;;;27.20;24.60;;;;;;;15.14;100.00;99184.39;109567;1253;66040;-73
2023/08/13 03:06:38;;;;;;;25.00;22.50;;;;;;;15.14;100.00;99186.38;109599;1256;61220;-73
2023/08/13 03:09:05;;;;;;;27.50;24.80;;;;;;;15.12;100.00;99187.84;109566;1253;62470;-73
2023/08/13 03:11:32;;;;;;;26.50;23.90;;;;;;;15.10;100.00;99189.54;109397;1252;58990;-73
2023/08/13 03:13:58;;;;;;;24.60;22.40;;;;;;;15.09;100.00;99187.14;109528;1254;58988;-73
2023/08/13 03:16:25;;;;;;;22.70;20.60;;;;;;;15.09;100.00;99187.02;109550;1253;65762;-73
2023/08/13 03:18:51;;;;;;;23.60;21.50;;;;;;;15.06;100.00;99189.70;109480;1252;59050;-73
2023/08/13 03:21:18;;;;;;;24.10;21.80;;;;;;;15.04;100.00;99196.52;109409;1254;65259;-73
2023/08/13 03:23:46;;;;;;;25.10;22.60;;;;;;;15.01;100.00;99192.11;109531;1253;58961;-73
2023/08/13 03:26:12;;;;;;;23.70;21.50;;;;;;;15.01;100.00;99190.34;109608;1253;59048;-73
2023/08/13 03:28:39;;;;;;;23.80;21.60;;;;;;;15.01;100.00;99186.77;109513;1251;73705;-73
2023/08/13 03:31:06;;;;;;;23.00;20.90;;;;;;;15.02;100.00;99191.52;109496;1252;60155;-74
2023/08/13 03:33:32;;;;;;;22.50;20.40;;;;;;;15.03;100.00;99190.67;109341;1254;62509;-72
2023/08/13 03:35:59;;;;;;;21.00;19.20;;;;;;;15.05;100.00;99190.34;109523;1253;58959;-72
2023/08/13 03:38:25;;;;;;;21.50;19.50;;;;;;;15.07;100.00;99192.52;109517;1254;59111;-72
2023/08/13 03:40:55;;;;;;;23.10;21.00;;;;;;;15.11;100.00;99193.26;109566;1253;66571;-72
2023/08/13 03:43:22;;;;;;;24.00;21.80;;;;;;;15.16;100.00;99199.10;109537;1252;59380;-72
2023/08/13 03:45:49;;;;;;;22.80;20.60;;;;;;;15.21;100.00;99198.56;109539;1252;64118;-73
2023/08/13 03:48:15;;;;;;;22.60;20.50;;;;;;;15.26;100.00;99193.96;109494;1252;58940;-73
2023/08/13 03:50:42;;;;;;;21.80;19.80;;;;;;;15.32;100.00;99199.21;109520;1252;58972;-73
2023/08/13 03:53:09;;;;;;;22.50;20.40;;;;;;;15.36;100.00;99204.59;109535;1253;64901;-73
2023/08/13 03:55:36;;;;;;;20.60;18.60;;;;;;;15.42;100.00;99205.17;109559;1253;60565;-73
2023/08/13 03:58:04;;;;;;;19.00;17.30;;;;;;;15.81;100.00;99202.13;109516;1254;64073;-73
2023/08/13 04:00:30;;;;;;;18.10;16.70;;;;;;;16.56;100.00;99194.40;109449;1253;59287;-73
2023/08/13 04:02:57;;;;;;;17.90;16.20;;;;;;;17.22;100.00;99192.91;109530;1254;59122;-72
2023/08/13 04:05:24;;;;;;;16.50;14.80;;;;;;;17.88;100.00;99191.39;109520;1252;64929;-73
2023/08/13 04:07:51;;;;;;;15.70;14.20;;;;;;;18.45;100.00;99193.09;109541;1255;60288;-73
2023/08/13 04:10:17;;;;;;;16.20;14.50;;;;;;;18.95;100.00;99190.57;109237;1254;65329;-73
2023/08/13 04:12:44;;;;;;;15.40;14.00;;;;;;;19.44;100.00;99183.24;109507;1254;58942;-73
2023/08/13 04:15:10;;;;;;;13.80;12.70;;;;;;;19.94;100.00;99179.41;109566;1252;58942;-73
2023/08/13 04:17:37;;;;;;;14.00;12.70;;;;;;;20.42;100.00;99180.44;109563;1253;66127;-73
2023/08/13 04:20:05;;;;;;;15.20;13.70;;;;;;;20.98;100.00;99179.17;109478;1253;59158;-74
2023/08/13 04:22:31;;;;;;;13.50;12.40;;;;;;;21.47;100.00;99174.93;109499;1253;64132;-74
2023/08/13 04:24:58;;;;;;;13.70;12.50;;;;;;;21.87;100.00;99172.83;109487;1252;58959;-72
2023/08/13 04:27:24;;;;;;;12.80;11.70;;;;;;;22.33;100.00;99177.49;109472;1254;58884;-72
2023/08/13 04:29:51;;;;;;;12.20;11.20;;;;;;;22.83;100.00;99181.27;109469;1254;64825;-72
2023/08/13 04:32:18;;;;;;;12.40;11.30;;;;;;;23.25;100.00;99186.14;109531;1253;60140;-72
2023/08/13 04:34:44;;;;;;;12.70;11.80;;;;;;;23.58;100.00;99183.05;109505;1254;62810;-72
2023/08/13 04:37:11;;;;;;;12.50;11.40;;;;;;;23.87;100.00;99183.07;109476;1253;58987;-72
2023/08/13 04:39:37;;;;;;;12.40;11.20;;;;;;;24.10;100.00;99189.52;109530;1254;59825;-72
2023/08/13 04:42:04;;;;;;;13.30;12.10;;;;;;;24.22;100.00;99192.48;109526;1254;66027;-73
2023/08/13 04:44:30;;;;;;;12.40;11.20;;;;;;;24.26;100.00;99195.74;109506;1252;59090;-73
2023/08/13 04:46:57;;;;;;;11.90;10.90;;;;;;;24.46;100.00;99197.98;109535;1252;64103;-73
2023/08/13 04:49:23;;;;;;;11.10;10.10;;;;;;;24.71;100.00;99207.08;109511;1254;59311;-74
2023/08/13 04:51:50;;;;;;;12.30;11.30;;;;;;;24.80;100.00;99211.01;109477;1253;58873;-72
2023/08/13 04:54:17;;;;;;;11.60;10.60;;;;;;;25.01;100.00;99213.52;109514;1254;65712;-74
2023/08/13 04:56:43;;;;;;;10.70;9.80;;;;;;;25.28;100.00;99212.77;109518;1253;59929;-73
2023/08/13 04:59:11;;;;;;;10.20;9.40;;;;;;;25.51;100.00;99211.00;109513;1252;65281;-73
2023/08/13 05:01:37;;;;;;;10.30;9.40;;;;;;;25.76;100.00;99214.55;109489;1254;58949;-73
2023/08/13 05:04:04;;;;;;;9.60;8.80;;;;;;;26.04;100.00;99213.87;109516;1253;59095;-73
2023/08/13 05:06:30;;;;;;;9.50;8.50;;;;;;;26.38;100.00;99210.75;109545;1254;65965;-72
2023/08/13 05:08:57;;;;;;;9.00;8.20;;;;;;;26.71;100.00;99213.64;109485;1252;60019;-74
2023/08/13 05:11:24;;;;;;;9.10;8.40;;;;;;;27.02;100.00;99209.85;109444;1252;64044;-73
2023/08/13 05:13:50;;;;;;;9.40;8.60;;;;;;;27.39;100.00;99207.31;109390;1252;59041;-73
2023/08/13 05:16:17;;;;;;;9.70;8.90;;;;;;;27.71;100.00;99204.40;109596;1253;58978;-74
2023/08/13 05:18:43;;;;;;;9.90;8.40;;;;;;;28.02;100.00;99210.02;109541;1253;66003;-73
2023/08/13 05:21:10;;;;;;;9.80;8.50;;;;;;;28.10;100.00;99207.05;109555;1256;59910;-74
2023/08/13 05:23:36;;;;;;;8.30;7.60;;;;;;;27.77;100.00;99207.65;109486;1253;62601;-73
2023/08/13 05:26:03;;;;;;;7.50;6.80;;;;;;;27.86;100.00;99210.55;109503;1253;59018;-73
2023/08/13 05:28:30;;;;;;;7.20;6.50;;;;;;;28.19;100.00;99215.70;109317;1254;59000;-73
2023/08/13 05:30:56;;;;;;;8.00;7.40;;;;;;;28.59;100.00;99212.89;109507;1254;66043;-73
2023/08/13 05:33:23;;;;;;;9.30;7.40;;;;;;;28.83;100.00;99211.11;109575;1252;61417;-73
2023/08/13 05:35:49;;;;;;;8.10;7.40;;;;;;;28.79;100.00;99211.17;109531;1252;64184;-72
2023/08/13 05:38:16;;;;;;;8.60;7.20;;;;;;;28.72;100.00;99213.73;109588;1253;59084;-74
2023/08/13 05:40:42;;;;;;;7.60;6.90;;;;;;;28.44;100.00;99214.02;109582;1253;59036;-74
2023/08/13 05:43:09;;;;;;;7.70;6.30;;;;;;;28.05;100.00;99215.52;109504;1253;66050;-74
2023/08/13 05:45:35;;;;;;;7.50;6.70;;;;;;;27.80;100.00;99218.58;109534;1254;60359;-74
2023/08/13 05:48:02;;;;;;;6.80;6.10;;;;;;;27.78;100.00;99217.90;109487;1253;64077;-74
2023/08/13 05:50:29;;;;;;;7.20;6.60;;;;;;;27.56;100.00;99217.25;109564;1253;58964;-75
2023/08/13 05:52:56;;;;;;;6.00;5.40;;;;;;;27.32;100.00;99221.23;109493;1252;59088;-75
2023/08/13 05:55:22;;;;;;;6.90;5.70;;;;;;;27.32;100.00;99222.71;109507;1253;66036;-75
2023/08/13 05:57:49;;;;;;;7.30;6.60;;;;;;;27.02;100.00;99219.48;109549;1253;60109;-75
2023/08/13 06:00:16;;;;;;;6.70;6.00;;;;;;;26.71;100.00;99222.90;109497;1252;64049;-75
2023/08/13 06:02:43;;;;;;;7.20;6.60;;;;;;;26.52;100.00;99218.94;109494;1251;58968;-75
2023/08/13 06:05:11;;;;;;;7.30;6.40;;;;;;;26.34;100.00;99219.48;109536;1253;59079;-76
2023/08/13 06:07:37;;;;;;;7.00;6.40;;;;;;;26.13;100.00;99224.37;109285;1253;64459;-78
2023/08/13 06:10:04;;;;;;;6.70;6.10;;;;;;;25.99;100.00;99229.11;109534;1254;60219;-78
2023/08/13 06:12:31;;;;;;;7.60;6.30;;;;;;;25.86;100.00;99228.93;109495;1253;63850;-79
2023/08/13 06:14:58;;;;;;;8.20;6.80;;;;;;;25.65;100.00;99224.27;109390;1257;59071;-77
2023/08/13 06:17:25;;;;;;;8.80;8.00;;;;;;;25.41;100.00;99227.14;109536;1254;59882;-77
2023/08/13 06:19:52;;;;;;;9.30;7.70;;;;;;;25.26;100.00;99230.29;109472;1254;66582;-77
2023/08/13 06:22:19;;;;;;;8.30;7.40;;;;;;;25.22;100.00;99230.98;109508;1253;60163;-77
2023/08/13 06:24:45;;;;;;;9.30;8.30;;;;;;;25.14;100.00;99229.20;109510;1253;64922;-77
2023/08/13 06:27:12;;;;;;;11.20;9.60;;;;;;;25.06;100.00;99228.14;109505;1253;58982;-77
2023/08/13 06:29:39;;;;;;;9.90;8.50;;;;;;;25.00;100.00;99234.55;109474;1252;58894;-76
2023/08/13 06:32:05;;;;;;;11.00;10.00;;;;;;;24.95;100.00;99236.09;109485;1252;66056;-76
2023/08/13 06:34:32;;;;;;;10.20;9.10;;;;;;;24.92;100.00;99234.12;109587;1252;59507;-76
2023/08/13 06:36:58;;;;;;;10.10;9.10;;;;;;;24.91;100.00;99229.28;109547;1254;63652;-76
2023/08/13 06:39:25;;;;;;;10.80;9.70;;;;;;;24.88;100.00;99231.08;109590;1254;58978;-76
2023/08/13 06:41:51;;;;;;;9.70;8.70;;;;;;;24.88;100.00;99228.91;109553;1254;58985;-76
2023/08/13 06:44:19;;;;;;;10.50;9.40;;;;;;;24.85;100.00;99228.23;109529;1253;64710;-76
2023/08/13 06:46:47;;;;;;;10.00;9.00;;;;;;;24.89;100.00;99229.91;109293;1253;60752;-76
2023/08/13 06:49:14;;;;;;;10.30;9.20;;;;;;;24.94;100.00;99229.41;109539;1253;62478;-76
2023/08/13 06:51:41;;;;;;;9.80;7.90;;;;;;;25.03;100.00;99224.31;109516;1253;58974;-76
2023/08/13 06:54:08;;;;;;;9.60;8.40;;;;;;;25.12;100.00;99224.50;109489;1253;59035;-76
2023/08/13 06:56:36;;;;;;;9.10;8.20;;;;;;;25.19;100.00;99226.43;109611;1251;66906;-77
2023/08/13 06:59:03;;;;;;;11.10;8.30;;;;;;;25.23;100.00;99228.29;109658;1250;60233;-77
2023/08/13 07:01:30;;;;;;;9.60;8.00;;;;;;;25.27;100.00;99229.60;109559;1251;64637;-77
2023/08/13 07:03:57;;;;;;;9.40;7.50;;;;;;;25.32;100.00;99227.46;109582;1251;59188;-77
2023/08/13 07:06:25;;;;;;;7.30;6.60;;;;;;;25.40;100.00;99228.31;109649;1251;59421;-77
2023/08/13 07:08:52;;;;;;;8.90;6.70;;;;;;;25.46;100.00;99237.45;109655;1251;64812;-76
2023/08/13 07:11:18;;;;;;;6.80;6.10;;;;;;;25.54;100.00;99235.65;109454;1251;60246;-76
2023/08/13 07:13:47;;;;;;;6.40;5.80;;;;;;;25.65;100.00;99238.52;109523;1251;62862;-76
2023/08/13 07:16:13;;;;;;;5.90;5.30;;;;;;;25.73;100.00;99241.17;109577;1251;58982;-77
2023/08/13 07:18:42;;;;;;;7.10;5.70;;;;;;;25.76;100.00;99242.77;109637;1251;58846;-76
2023/08/13 07:21:10;;;;;;;5.90;5.40;;;;;;;25.82;100.00;99247.08;109612;1251;65836;-76
2023/08/13 07:23:36;;;;;;;5.80;5.30;;;;;;;25.87;100.00;99245.34;109607;1251;61291;-76
2023/08/13 07:26:03;;;;;;;6.00;5.50;;;;;;;25.98;100.00;99245.75;109659;1251;64068;-77
2023/08/13 07:28:32;;;;;;;7.00;6.30;;;;;;;26.17;100.00;99249.02;109586;1251;58958;-76
2023/08/13 07:30:59;;;;;;;5.90;5.40;;;;;;;26.28;100.00;99245.45;109639;1251;58933;-76
2023/08/13 07:33:25;;;;;;;6.10;5.40;;;;;;;26.29;100.00;99244.70;109629;1251;73979;-76
2023/08/13 07:35:52;;;;;;;6.20;5.70;;;;;;;26.37;100.00;99245.60;109637;1251;70119;-76
2023/08/13 07:38:18;;;;;;;7.10;6.40;;;;;;;26.55;100.00;99243.83;109592;1251;64016;-76
2023/08/13 07:40:45;;;;;;;6.20;5.60;;;;;;;26.75;100.00;99234.20;109620;1251;58950;-76
2023/08/13 07:43:11;;;;;;;6.10;5.60;;;;;;;26.94;100.00;99234.98;109654;1251;58882;-76
2023/08/13 07:45:38;;;;;;;5.00;4.60;;;;;;;27.11;100.00;99237.42;109574;1251;64868;-76
2023/08/13 07:48:05;;;;;;;5.50;5.10;;;;;;;27.28;100.00;99237.69;109617;1251;59011;-76
2023/08/13 07:50:32;;;;;;;5.10;4.60;;;;;;;27.41;100.00;99235.20;109451;1251;64946;-76
2023/08/13 07:52:59;;;;;;;5.00;4.60;;;;;;;27.42;100.00;99238.62;109630;1251;58927;-75
2023/08/13 07:55:25;;;;;;;5.20;4.60;;;;;;;27.45;100.00;99239.72;109649;1251;59018;-75
2023/08/13 07:57:52;;;;;;;5.10;4.70;;;;;;;27.54;100.00;99242.94;109644;1251;64845;-74
2023/08/13 08:00:19;;;;;;;7.00;4.50;;;;;;;27.66;100.00;99239.42;109638;1251;61534;-75
2023/08/13 08:02:46;;;;;;;5.40;4.90;;;;;;;27.82;100.00;99244.88;109578;1251;62794;-75
2023/08/13 08:05:12;;;;;;;5.30;4.90;;;;;;;27.90;100.00;99246.23;109656;1251;58956;-76
2023/08/13 08:07:39;;;;;;;5.10;4.60;;;;;;;28.00;100.00;99248.25;109649;1251;58945;-76
2023/08/13 08:10:06;;;;;;;5.00;4.40;;;;;;;28.14;100.00;99247.25;109613;1251;66038;-76
2023/08/13 08:12:33;;;;;;;5.20;4.70;;;;;;;28.15;100.00;99248.30;109620;1251;59039;-76
2023/08/13 08:15:00;;;;;;;5.30;4.80;;;;;;;28.01;100.00;99248.67;109614;1251;64029;-76
2023/08/13 08:17:26;;;;;;;4.90;4.50;;;;;;;28.09;100.00;99250.66;109569;1251;59221;-76
2023/08/13 08:19:54;;;;;;;4.60;4.30;;;;;;;28.16;100.00;99247.33;109618;1251;58949;-76
2023/08/13 08:22:20;;;;;;;4.50;4.00;;;;;;;28.21;100.00;99247.13;109445;1251;64821;-75
2023/08/13 08:24:47;;;;;;;4.80;4.40;;;;;;;28.29;100.00;99244.46;109602;1250;59179;-75
2023/08/13 08:27:13;;;;;;;4.50;4.00;;;;;;;28.29;100.00;99245.30;109644;1251;62733;-75
2023/08/13 08:29:40;;;;;;;4.30;3.90;;;;;;;28.22;100.00;99245.72;109597;1251;58960;-75
2023/08/13 08:32:07;;;;;;;4.70;4.30;;;;;;;28.17;100.00;99248.05;109632;1251;59206;-77
2023/08/13 08:34:34;;;;;;;5.50;4.50;;;;;;;28.03;100.00;99252.92;109569;1251;64838;-75
2023/08/13 08:37:01;;;;;;;4.60;4.20;;;;;;;27.86;100.00;99255.39;109608;1250;60533;-75
2023/08/13 08:39:27;;;;;;;4.90;3.70;;;;;;;27.84;100.00;99250.79;109428;1251;63826;-75
2023/08/13 08:41:56;;;;;;;3.90;3.50;;;;;;;27.81;100.00;99250.23;109582;1251;58998;-76
2023/08/13 08:44:24;;;;;;;4.20;3.70;;;;;;;27.84;100.00;99248.16;109601;1251;59394;-75
2023/08/13 08:46:53;;;;;;;4.00;3.70;;;;;;;27.92;100.00;99246.16;109641;1251;67081;-76
2023/08/13 08:49:23;;;;;;;5.20;3.70;;;;;;;27.92;100.00;99241.45;109614;1251;59942;-76
2023/08/13 08:51:50;;;;;;;4.20;3.70;;;;;;;27.90;100.00;99240.64;109594;1251;64197;-75
2023/08/13 08:54:18;;;;;;;3.30;3.00;;;;;;;27.92;100.00;99237.45;109592;1251;58992;-76
2023/08/13 08:56:44;;;;;;;3.20;3.00;;;;;;;27.87;100.00;99240.19;109648;1251;59165;-75
2023/08/13 08:59:11;;;;;;;6.00;3.20;;;;;;;27.76;100.00;99240.73;109627;1250;66117;-76
2023/08/13 09:01:39;;;;;;;3.80;3.20;;;;;;;27.71;100.00;99240.25;109621;1251;60315;-76
2023/08/13 09:04:05;;;;;;;3.40;3.10;;;;;;;27.74;100.00;99234.39;109542;1251;64146;-76
2023/08/13 09:07:01;;;;;;;3.70;3.40;;;;;;;27.80;100.00;99234.30;109618;1251;59080;-75
2023/08/13 09:09:29;;;;;;;3.00;2.80;;;;;;;27.85;100.00;99234.52;109641;1251;58975;-77
2023/08/13 09:11:56;;;;;;;3.50;2.80;;;;;;;27.83;100.00;99230.36;109588;1251;65728;-76
2023/08/13 09:14:24;;;;;;;3.20;2.90;;;;;;;27.83;100.00;99225.55;109635;1251;61082;-77
2023/08/13 09:16:52;;;;;;;3.30;2.80;;;;;;;27.79;100.00;99222.23;109659;1251;65125;-76
2023/08/13 09:19:21;;;;;;;3.50;2.50;;;;;;;27.74;100.00;99221.63;109622;1251;58964;-76
2023/08/13 09:21:51;;;;;;;2.50;2.30;;;;;;;27.71;100.00;99218.09;109687;1251;58867;-76
2023/08/13 09:24:19;;;;;;;2.90;2.60;;;;;;;27.78;100.00;99219.50;109604;1251;66033;-76
2023/08/13 09:26:45;;;;;;;2.90;2.70;;;;;;;27.94;100.00;99218.69;109630;1251;59914;-77
2023/08/13 09:29:12;;;;;;;3.60;3.30;;;;;;;28.12;100.00;99213.30;109571;1251;65241;-75
2023/08/13 09:31:40;;;;;;;3.40;3.20;;;;;;;28.21;100.00;99213.09;109612;1251;59039;-76
2023/08/13 09:34:07;;;;;;;3.30;2.60;;;;;;;28.31;100.00;99214.35;109607;1251;59156;-77
2023/08/13 09:36:34;;;;;;;2.50;2.40;;;;;;;28.40;100.00;99218.89;109590;1251;66036;-76
2023/08/13 09:39:01;;;;;;;2.50;2.30;;;;;;;28.42;100.00;99217.42;109594;1251;60315;-76
2023/08/13 09:41:27;;;;;;;3.10;2.30;;;;;;;28.37;100.00;99212.40;109388;1251;63850;-76
2023/08/13 09:43:55;;;;;;;2.90;2.10;;;;;;;28.37;100.00;99212.45;109443;1251;59011;-76
2023/08/13 09:46:27;;;;;;;2.00;1.90;;;;;;;28.34;100.00;99215.33;109602;1251;59043;-76
2023/08/13 09:48:57;;;;;;;2.60;2.40;;;;;;;28.38;100.00;99216.11;109669;1250;66022;-76
2023/08/13 09:51:31;;;;;;;2.70;2.20;;;;;;;28.45;100.00;99213.94;109636;1251;59059;-76
2023/08/13 09:54:11;;;;;;;2.50;1.90;;;;;;;28.39;100.00;99211.73;109607;1251;64071;-75
2023/08/13 09:56:42;;;;;;;2.90;2.60;;;;;;;28.24;100.00;99213.30;109585;1251;59123;-75
2023/08/13 09:59:10;;;;;;;3.80;2.50;;;;;;;28.16;100.00;99210.57;109591;1251;59121;-74
2023/08/13 10:01:38;;;;;;;3.00;2.30;;;;;;;28.27;100.00;99209.84;109687;1251;65749;-76
2023/08/13 10:04:05;;;;;;;2.50;2.30;;;;;;;28.39;96.89;99210.89;109724;1251;60262;-76
2023/08/13 10:06:34;;;;;;;4.00;2.50;;;;;;;28.42;94.92;99207.76;109618;1251;62847;-76
2023/08/13 10:09:01;;;;;;;3.20;2.80;;;;;;;28.45;95.51;99206.80;109646;1251;58986;-76
2023/08/13 10:11:27;;;;;;;2.70;1.90;;;;;;;28.54;96.88;99208.62;109600;1251;59074;-76
2023/08/13 10:13:55;;;;;;;2.20;2.00;;;;;;;28.67;96.39;99207.45;109636;1251;64836;-77
2023/08/13 10:16:23;;;;;;;2.50;2.10;;;;;;;28.73;95.28;99208.02;109655;1250;61330;-76
2023/08/13 10:18:49;;;;;;;2.40;2.20;;;;;;;28.76;95.28;99205.56;109455;1251;63875;-76
2023/08/13 10:21:31;;;;;;;2.40;2.20;;;;;;;28.76;94.66;99206.61;109617;1251;58938;-75
2023/08/13 10:24:01;;;;;;;2.50;2.30;;;;;;;28.80;94.74;99207.14;109650;1251;59021;-77
2023/08/13 10:26:27;;;;;;;;;;;;;;;28.85;93.74;99203.22;109658;1250;64736;-77
2023/08/13 10:28:54;;;;;;;2.60;2.40;;;;;;;28.73;91.70;99203.20;109644;1251;58999;-76
2023/08/13 10:31:29;;;;;;;2.40;2.20;;;;;;;28.61;92.82;99207.49;109600;1251;62879;-76
2023/08/13 10:34:12;;;;;;;2.20;2.10;;;;;;;28.62;93.62;99206.57;109631;1251;59005;-76
2023/08/13 10:37:24;;;;;;;2.30;2.10;;;;;;;28.67;92.81;99206.39;109697;1251;59228;-75
2023/08/13 10:39:56;;;;;;;2.70;2.40;;;;;;;28.69;92.24;99207.52;109648;1251;67234;-75
2023/08/13 10:42:29;;;;;;;3.40;2.40;;;;;;;28.76;93.33;99202.48;109709;1250;60341;-75
2023/08/13 10:45:03;;;;;;;2.90;2.60;;;;;;;28.82;92.35;99201.06;109623;1251;64863;-75
2023/08/13 10:47:53;;;;;;;4.10;2.30;;;;;;;28.81;91.10;99196.05;109611;1251;59001;-75
2023/08/13 10:50:25;;;;;;;2.60;2.40;;;;;;;28.83;88.58;99198.27;109619;1251;58850;-75
2023/08/13 10:52:53;;;;;;;2.40;2.30;;;;;;;28.88;88.37;99196.48;109666;1251;65737;-75
2023/08/13 10:55:24;;;;;;;3.00;2.30;;;;;;;28.91;87.52;99198.27;109674;1250;58983;-74
2023/08/13 10:57:52;;;;;;;3.70;2.20;;;;;;;28.94;84.39;99199.05;109633;1251;65279;-74
2023/08/13 11:00:21;;;;;;;3.70;2.40;;;;;;;28.93;83.42;99196.85;109446;1251;59381;-76
2023/08/13 11:03:00;;;;;;;2.60;2.40;;;;;;;28.97;82.84;99193.75;109641;1251;58941;-75
2023/08/13 11:05:28;;;;;;;2.90;2.40;;;;;;;29.09;81.77;99194.32;109654;1250;66998;-75
2023/08/13 11:07:55;;;;;;;5.00;2.80;;;;;;;29.22;81.54;99193.38;109430;1251;58994;-75
2023/08/13 11:10:22;;;;;;;2.50;2.30;;;;;;;29.29;81.24;99194.70;109653;1251;63760;-74
2023/08/13 11:12:49;;;;;;;2.70;2.30;;;;;;;29.31;78.04;99194.46;109588;1251;59434;-75
2023/08/13 11:15:16;;;;;;;2.90;2.70;;;;;;;29.32;76.90;99190.88;109659;1250;60684;-76